Time;durP1;ratioP1;P1;durP2;ratioP2;P2;SDS_P1;SDS_P2;PMS_P1;PMS_P2;Temp;Humidity;BMP_temperature;BMP_pressure;BME280_temperature;BME280_humidity;BME280_pressure;Samples;Min_cycle;Max_cycle;Signal;HPM_P1;HPM_P2
2022/01/12 00:00:07;;;;;;;;;;;;;;;-3.94;100.00;97425.19;1027352;28;20463;-65
2022/01/12 00:00:39;;;;;;;;;;;;;;;-3.97;100.00;97423.69;1031608;28;19952;-69
2022/01/12 00:01:12;;;;;;;;;;;;;;;-3.96;100.00;97429.63;1027440;28;19953;-68
2022/01/12 00:01:43;;;;;;;;;;;;;;;-3.95;100.00;97423.56;1024395;28;20207;-67
2022/01/12 00:02:13;;;;;;;;;;;;;;;-3.97;100.00;97426.25;1027212;28;19941;-67
2022/01/12 00:02:44;;;;;;;;;;;;;;;-3.97;100.00;97417.75;1022947;29;19915;-70
2022/01/12 00:03:14;;;;;;;;;;;;;;;-3.96;100.00;97417.59;1019888;29;19961;-68
2022/01/12 00:03:44;;;;;;;;;;;;;;;-3.98;100.00;97424.63;1023080;29;19969;-67
2022/01/12 00:04:15;;;;;;;;;;;;;;;-3.98;100.00;97414.38;1019310;28;20009;-68
2022/01/12 00:04:45;;;;;;;;;;;;;;;-3.97;100.00;97417.75;1023494;29;20629;-69
2022/01/12 00:05:16;;;;;;;;;;;;;;;-3.98;100.00;97419.50;1023380;29;19934;-68
2022/01/12 00:05:46;;;;;;;;;;;;;;;-4.01;100.00;97418.97;1023778;28;19909;-67
2022/01/12 00:06:17;;;;;;;;;;;;;;;-4.01;100.00;97418.97;1027538;28;19910;-67
2022/01/12 00:06:47;;;;;;;;;;;;;;;-4.04;100.00;97420.03;1023147;28;20570;-67
2022/01/12 00:07:17;;;;;;;;;;;;;;;-4.05;100.00;97428.66;1023773;28;19910;-68
2022/01/12 00:07:50;;;;;;;;;;;;;;;-4.06;100.00;97422.72;1027429;28;19949;-68
2022/01/12 00:08:20;;;;;;;;;;;;;;;-4.08;100.00;97418.66;1019640;29;19911;-66
2022/01/12 00:08:51;;;;;;;;;;;;;;;-4.10;100.00;97421.34;1023475;29;20602;-67
2022/01/12 00:09:21;;;;;;;;;;;;;;;-4.12;100.00;97423.25;1020905;28;19975;-67
2022/01/12 00:09:54;;;;;;;;;;;;;;;-4.13;100.00;97425.91;1028020;28;19965;-67
2022/01/12 00:10:25;;;;;;;;;;;;;;;-4.13;100.00;97421.59;1026100;28;19914;-67
2022/01/12 00:10:56;;;;;;;;;;;;;;;-4.16;100.00;97419.28;1025120;28;20604;-67
2022/01/12 00:11:27;;;;;;;;;;;;;;;-4.18;100.00;97418.63;1023193;29;19914;-68
2022/01/12 00:11:59;;;;;;;;;;;;;;;-4.20;100.00;97425.63;1021299;28;19946;-68
2022/01/12 00:12:29;;;;;;;;;;;;;;;-4.20;100.00;97423.06;1024868;28;19902;-67
2022/01/12 00:12:59;;;;;;;;;;;;;;;-4.19;100.00;97422.13;1027397;28;19910;-68
2022/01/12 00:13:30;;;;;;;;;;;;;;;-4.18;100.00;97420.38;1027240;28;19914;-67
2022/01/12 00:14:00;;;;;;;;;;;;;;;-4.20;100.00;97425.63;1023697;29;19910;-67
2022/01/12 00:14:30;;;;;;;;;;;;;;;-4.23;100.00;97425.06;1026720;28;19910;-68
2022/01/12 00:15:00;;;;;;;;;;;;;;;-4.22;100.00;97412.13;1031381;28;19940;-68
2022/01/12 00:15:31;;;;;;;;;;;;;;;-4.22;100.00;97422.38;1027393;28;20327;-66
2022/01/12 00:16:02;;;;;;;;;;;;;;;-4.24;100.00;97421.69;1027379;28;19914;-68
2022/01/12 00:16:32;;;;;;;;;;;;;;;-4.25;100.00;97417.50;1027616;28;19924;-69
2022/01/12 00:17:02;;;;;;;;;;;;;;;-4.24;100.00;97419.13;1029721;28;19926;-68
2022/01/12 00:17:33;;;;;;;;;;;;;;;-4.25;100.00;97417.50;1030993;28;19917;-68
2022/01/12 00:18:03;;;;;;;;;;;;;;;-4.24;100.00;97420.88;1031804;28;20441;-67
2022/01/12 00:18:33;;;;;;;;;;;;;;;-4.27;100.00;97415.06;1023222;29;19928;-69
2022/01/12 00:19:04;;;;;;;;;;;;;;;-4.24;100.00;97414.00;1023238;29;19968;-68
2022/01/12 00:19:34;;;;;;;;;;;;;;;-4.23;100.00;97414.81;1019719;29;19950;-68
2022/01/12 00:20:04;;;;;;;;;;;;;;;-4.25;100.00;97421.84;1022788;29;19926;-68
2022/01/12 00:20:35;;;;;;;;;;;;;;;-4.30;100.00;97419.63;1024886;28;19926;-67
2022/01/12 00:21:05;;;;;;;;;;;;;;;-4.30;100.00;97409.38;1024028;28;20444;-67
2022/01/12 00:21:35;;;;;;;;;;;;;;;-4.30;100.00;97422.19;1023398;28;19919;-67
2022/01/12 00:22:05;;;;;;;;;;;;;;;-4.33;100.00;97412.19;1018893;29;20482;-69
2022/01/12 00:22:38;;;;;;;;;;;;;;;-4.32;100.00;97408.72;1019586;29;19925;-67
2022/01/12 00:23:08;;;;;;;;;;;;;;;-4.33;100.00;97409.63;1026709;28;19914;-67
2022/01/12 00:23:39;;;;;;;;;;;;;;;-4.33;100.00;97412.19;1019868;28;20428;-66
2022/01/12 00:24:10;;;;;;;;;;;;;;;-4.34;100.00;97413.16;1027022;28;19957;-67
2022/01/12 00:25:32;;;;;;;;;;;;;;;-4.39;100.00;97413.53;1029303;28;20442;-68
2022/01/12 00:33:35;;;;;;;;;;;;;;;-4.50;100.00;97401.59;1026437;28;19987;-67
2022/01/12 00:34:05;;;;;;;;;;;;;;;-4.53;100.00;97395.94;1023410;28;19973;-68
2022/01/12 00:34:36;;;;;;;;;;;;;;;-4.53;100.00;97399.31;1026213;28;19914;-69
2022/01/12 00:35:06;;;;;;;;;;;;;;;-4.58;100.00;97396.31;1023182;29;19914;-68
2022/01/12 00:35:37;;;;;;;;;;;;;;;-4.61;100.00;97399.13;1027123;28;19953;-66
2022/01/12 00:36:07;;;;;;;;;;;;;;;-4.65;100.00;97395.19;1019788;29;20009;-68
2022/01/12 00:36:38;;;;;;;;;;;;;;;-4.67;100.00;97397.06;1027204;28;20307;-67
2022/01/12 00:37:08;;;;;;;;;;;;;;;-4.68;100.00;97395.44;1027606;28;19914;-69
2022/01/12 00:37:38;;;;;;;;;;;;;;;-4.73;100.00;97392.44;1027207;28;19925;-67
2022/01/12 00:38:09;;;;;;;;;;;;;;;-4.70;100.00;97397.31;1031219;28;20357;-67
2022/01/12 00:38:39;;;;;;;;;;;;;;;-4.71;100.00;97393.13;1027378;28;20076;-67
2022/01/12 00:39:10;;;;;;;;;;;;;;;-4.72;100.00;97399.22;1027376;28;19925;-68
2022/01/12 00:39:40;;;;;;;;;;;;;;;-4.77;100.00;97399.56;1027546;28;19921;-70
2022/01/12 00:40:10;;;;;;;;;;;;;;;-4.76;100.00;97397.84;1030698;28;19909;-68
2022/01/12 00:40:41;;;;;;;;;;;;;;;-4.80;100.00;97401.56;1032708;28;19918;-68
2022/01/12 00:41:12;;;;;;;;;;;;;;;-4.80;100.00;97401.56;1035438;28;19956;-68
2022/01/12 00:41:42;;;;;;;;;;;;;;;-4.83;100.00;97400.09;1031266;28;19913;-68
2022/01/12 00:42:13;;;;;;;;;;;;;;;-4.84;100.00;97405.31;1027493;28;19914;-67
2022/01/12 00:42:44;;;;;;;;;;;;;;;-4.86;100.00;97407.19;1027701;28;19906;-68
2022/01/12 00:43:14;;;;;;;;;;;;;;;-4.86;100.00;97404.63;1027402;28;20276;-67
2022/01/12 00:43:47;;;;;;;;;;;;;;;-4.86;100.00;97402.91;1025023;28;19918;-67
2022/01/12 00:44:23;;;;;;;;;;;;;;;-4.88;100.00;97403.94;1028026;28;19922;-67
2022/01/12 00:44:54;;;;;;;;;;;;;;;-4.89;100.00;97407.47;1030607;28;20324;-67
2022/01/12 00:45:24;;;;;;;;;;;;;;;-4.91;100.00;97409.31;1023284;29;19918;-69
2022/01/12 00:45:55;;;;;;;;;;;;;;;-4.90;100.00;97405.81;1027315;28;19921;-68
2022/01/12 00:46:29;;;;;;;;;;;;;;;-4.91;100.00;97410.13;1027253;28;19968;-67
2022/01/12 00:47:00;;;;;;;;;;;;;;;-4.96;100.00;97407.13;1024165;28;19922;-70
2022/01/12 00:47:30;;;;;;;;;;;;;;;-4.97;100.00;97403.75;1026980;28;19945;-69
2022/01/12 00:48:00;;;;;;;;;;;;;;;-4.98;100.00;97399.56;1023665;29;20377;-66
2022/01/12 00:48:31;;;;;;;;;;;;;;;-4.89;100.00;97404.91;1023403;29;20653;-67
2022/01/12 00:49:01;;;;;;;;;;;;;;;-4.93;100.00;97409.41;1027213;28;19906;-68
2022/01/12 00:49:31;;;;;;;;;;;;;;;-4.87;100.00;97403.00;1031732;28;20008;-68
2022/01/12 00:50:02;;;;;;;;;;;;;;;-4.88;100.00;97409.06;1031188;28;19918;-70
2022/01/12 00:50:32;;;;;;;;;;;;;;;-4.92;100.00;97413.63;1022553;28;20384;-67
2022/01/12 00:51:03;;;;;;;;;;;;;;;-4.98;100.00;97407.25;1026979;28;19921;-67
2022/01/12 00:51:34;;;;;;;;;;;;;;;-4.98;100.00;97409.81;1031240;28;20107;-68
2022/01/12 00:52:04;;;;;;;;;;;;;;;-5.00;100.00;97406.56;1034920;28;19913;-68
2022/01/12 00:52:35;;;;;;;;;;;;;;;-4.99;100.00;97408.19;1021490;28;19919;-67
2022/01/12 00:53:05;;;;;;;;;;;;;;;-5.04;100.00;97406.94;1020361;29;19915;-70
2022/01/12 00:53:35;;;;;;;;;;;;;;;-5.06;100.00;97406.25;1021480;29;19921;-67
2022/01/12 00:54:09;;;;;;;;;;;;;;;-5.08;100.00;97416.59;1023140;28;19953;-67
2022/01/12 00:54:39;;;;;;;;;;;;;;;-5.12;100.00;97407.56;1031120;28;19960;-67
2022/01/12 00:55:09;;;;;;;;;;;;;;;-5.13;100.00;97407.66;1031487;28;20268;-68
2022/01/12 00:55:40;;;;;;;;;;;;;;;-5.16;100.00;97413.84;1027187;28;20454;-67
2022/01/12 00:56:11;;;;;;;;;;;;;;;-5.16;100.00;97415.56;1031267;28;19918;-68
2022/01/12 00:56:41;;;;;;;;;;;;;;;-5.11;100.00;97414.28;1031251;28;19913;-67
2022/01/12 00:57:14;;;;;;;;;;;;;;;-5.15;100.00;97412.09;1023958;28;19965;-68
2022/01/12 00:57:45;;;;;;;;;;;;;;;-5.17;100.00;97412.22;1023192;29;19925;-68
2022/01/12 00:58:15;;;;;;;;;;;;;;;-5.18;100.00;97405.47;1027152;28;20020;-67
2022/01/12 00:58:46;;;;;;;;;;;;;;;-5.20;100.00;97415.00;1027447;28;19917;-67
2022/01/12 00:59:16;;;;;;;;;;;;;;;-5.21;100.00;97408.28;1029844;28;19964;-67
2022/01/12 00:59:46;;;;;;;;;;;;;;;-5.19;100.00;97411.53;1028250;28;19914;-65
2022/01/12 01:00:16;;;;;;;;;;;;;;;-5.23;100.00;97410.97;1027045;28;19949;-68
2022/01/12 01:00:47;;;;;;;;;;;;;;;-5.24;100.00;97409.34;1023970;28;19910;-68
2022/01/12 01:01:18;;;;;;;;;;;;;;;-5.21;100.00;97410.84;1023233;29;19910;-67
2022/01/12 01:01:48;;;;;;;;;;;;;;;-5.25;100.00;97414.59;1019495;28;20599;-67
2022/01/12 01:02:18;;;;;;;;;;;;;;;-5.27;100.00;97413.88;1027237;28;19914;-68
2022/01/12 01:02:49;;;;;;;;;;;;;;;-5.28;100.00;97417.38;1027193;28;19918;-69
2022/01/12 01:03:19;;;;;;;;;;;;;;;-5.26;100.00;97415.53;1027525;28;20395;-67
2022/01/12 01:03:49;;;;;;;;;;;;;;;-5.26;100.00;97418.88;1019067;29;20044;-68
2022/01/12 01:04:20;;;;;;;;;;;;;;;-5.27;100.00;97411.31;1015457;29;19925;-69
2022/01/12 01:04:50;;;;;;;;;;;;;;;-5.26;100.00;97413.78;1019234;29;19922;-69
2022/01/12 01:05:21;;;;;;;;;;;;;;;-5.22;100.00;97417.72;1015895;29;19923;-68
2022/01/12 01:05:52;;;;;;;;;;;;;;;-5.15;100.00;97417.22;1031560;28;19928;-70
2022/01/12 01:06:22;;;;;;;;;;;;;;;-5.11;100.00;97416.84;1030256;28;19924;-65
2022/01/12 01:06:54;;;;;;;;;;;;;;;-5.11;100.00;97419.41;1023064;29;19914;-67
2022/01/12 01:07:24;;;;;;;;;;;;;;;-5.14;100.00;97417.09;1026448;28;19898;-67
2022/01/12 01:07:55;;;;;;;;;;;;;;;-5.15;100.00;97422.34;1027088;28;20071;-68
2022/01/12 01:08:25;;;;;;;;;;;;;;;-5.17;100.00;97414.78;1023694;28;19925;-69
2022/01/12 01:08:55;;;;;;;;;;;;;;;-5.14;100.00;97414.53;1027224;28;19918;-69
2022/01/12 01:09:26;;;;;;;;;;;;;;;-5.13;100.00;97410.22;1023139;28;19915;-68
2022/01/12 01:10:08;;;;;;;;;;;;;;;-5.12;100.00;97417.78;1018978;29;19923;-67
2022/01/12 01:10:51;;;;;;;;;;;;;;;-5.14;100.00;97411.16;1019396;29;19922;-65
2022/01/12 01:11:24;;;;;;;;;;;;;;;-5.10;100.00;97410.78;1026664;28;19977;-69
2022/01/12 01:11:54;;;;;;;;;;;;;;;-5.08;100.00;97414.03;1027429;28;19924;-68
2022/01/12 01:12:25;;;;;;;;;;;;;;;-5.04;100.00;97415.41;1031127;28;19935;-67
2022/01/12 01:12:55;;;;;;;;;;;;;;;-5.09;100.00;97422.66;1023557;29;19965;-68
2022/01/12 01:13:28;;;;;;;;;;;;;;;-5.08;100.00;97421.72;1027040;28;19918;-68
2022/01/12 01:14:10;;;;;;;;;;;;;;;-5.09;100.00;97420.09;1027369;28;19969;-69
2022/01/12 01:15:03;;;;;;;;;;;;;;;-5.05;100.00;97413.81;1035296;28;19925;-68
2022/01/12 01:16:22;;;;;;;;;;;;;;;-5.08;100.00;97418.34;1030868;28;19926;-67
2022/01/12 01:17:18;;;;;;;;;;;;;;;-5.05;100.00;97418.91;1032823;28;19965;-68
2022/01/12 01:25:34;;;;;;;;;;;;;;;-5.14;100.00;97435.00;1027363;28;19952;-68
2022/01/12 01:26:04;;;;;;;;;;;;;;;-5.17;100.00;97434.44;1030040;28;19968;-68
2022/01/12 01:26:35;;;;;;;;;;;;;;;-5.16;100.00;97431.78;1027505;28;19929;-68
2022/01/12 01:27:06;;;;;;;;;;;;;;;-5.19;100.00;97429.44;1025673;28;20395;-67
2022/01/12 01:27:36;;;;;;;;;;;;;;;-5.16;100.00;97436.88;1031081;28;20445;-66
2022/01/12 01:28:09;;;;;;;;;;;;;;;-5.20;100.00;97430.38;1026910;28;19918;-67
2022/01/12 01:28:40;;;;;;;;;;;;;;;-5.16;100.00;97425.81;1026172;28;20268;-68
2022/01/12 01:29:10;;;;;;;;;;;;;;;-5.18;100.00;97425.94;1027484;28;19922;-69
2022/01/12 01:29:40;;;;;;;;;;;;;;;-5.15;100.00;97424.91;1023181;29;20039;-68
2022/01/12 01:30:11;;;;;;;;;;;;;;;-5.18;100.00;97423.38;1022273;28;19965;-68
2022/01/12 01:30:41;;;;;;;;;;;;;;;-5.16;100.00;97424.09;1027469;28;19910;-69
2022/01/12 01:31:12;;;;;;;;;;;;;;;-5.17;100.00;97435.25;1026977;28;19937;-68
2022/01/12 01:31:44;;;;;;;;;;;;;;;-5.12;100.00;97420.34;1023513;29;19925;-68
2022/01/12 01:32:14;;;;;;;;;;;;;;;-5.11;100.00;97424.53;1022939;28;19918;-67
2022/01/12 01:32:45;;;;;;;;;;;;;;;-5.11;100.00;97421.97;1023370;28;19918;-68
2022/01/12 01:33:17;;;;;;;;;;;;;;;-5.05;100.00;97428.34;1027881;28;19934;-68
2022/01/12 01:33:48;;;;;;;;;;;;;;;-5.09;100.00;97430.34;1026760;28;19934;-69
2022/01/12 01:34:18;;;;;;;;;;;;;;;-5.06;100.00;97431.84;1030869;28;19918;-68
2022/01/12 01:34:49;;;;;;;;;;;;;;;-5.05;100.00;97428.34;1031562;28;19918;-67
2022/01/12 01:35:19;;;;;;;;;;;;;;;-5.07;100.00;97430.19;1031301;28;19914;-69
2022/01/12 01:35:54;;;;;;;;;;;;;;;-5.05;100.00;97434.28;1031606;28;19906;-69
2022/01/12 01:36:28;;;;;;;;;;;;;;;-5.04;100.00;97435.06;1022436;29;19917;-69
2022/01/12 01:36:58;;;;;;;;;;;;;;;-5.06;100.00;97437.78;1027002;28;19910;-67
2022/01/12 01:37:28;;;;;;;;;;;;;;;-5.03;100.00;97434.97;1026505;28;19912;-68
2022/01/12 01:38:00;;;;;;;;;;;;;;;-5.08;100.00;97429.41;1020561;28;19918;-68
2022/01/12 01:38:30;;;;;;;;;;;;;;;-5.05;100.00;97434.28;1028266;28;19913;-68
2022/01/12 01:39:01;;;;;;;;;;;;;;;-5.01;100.00;97430.53;1027238;28;20300;-66
2022/01/12 01:39:31;;;;;;;;;;;;;;;-5.01;100.00;97434.84;1027802;28;19906;-68
2022/01/12 01:40:01;;;;;;;;;;;;;;;-5.03;100.00;97437.53;1031063;28;20351;-67
2022/01/12 01:40:32;;;;;;;;;;;;;;;-5.06;100.00;97440.34;1030355;28;20008;-69
2022/01/12 01:41:03;;;;;;;;;;;;;;;-5.06;100.00;97437.78;1031157;28;19910;-69
2022/01/12 01:41:34;;;;;;;;;;;;;;;-4.98;100.00;97435.41;1031501;28;19910;-67
2022/01/12 01:42:12;;;;;;;;;;;;;;;-5.01;100.00;97440.75;1030817;28;20391;-68
2022/01/12 01:43:38;;;;;;;;;;;;;;;-5.02;100.00;97439.16;1031180;28;20016;-69
2022/01/12 01:53:23;;;;;;;;;;;;;;;-4.90;100.00;97449.31;1030808;28;19901;-68
2022/01/12 01:53:53;;;;;;;;;;;;;;;-4.89;100.00;97446.66;1031305;28;20417;-69
2022/01/12 01:54:23;;;;;;;;;;;;;;;-4.89;100.00;97443.28;1021530;29;19906;-68
2022/01/12 01:54:54;;;;;;;;;;;;;;;-4.86;100.00;97450.69;1021442;28;19969;-67
2022/01/12 01:55:24;;;;;;;;;;;;;;;-4.85;100.00;97444.66;1027526;28;20426;-67
2022/01/12 01:55:54;;;;;;;;;;;;;;;-4.84;100.00;97451.41;1027872;28;20294;-68
2022/01/12 01:56:25;;;;;;;;;;;;;;;-4.82;100.00;97454.66;1031769;28;19910;-67
2022/01/12 01:56:55;;;;;;;;;;;;;;;-4.81;100.00;97451.16;1031404;28;19914;-68
2022/01/12 01:57:26;;;;;;;;;;;;;;;-4.79;100.00;97450.09;1023480;29;20284;-68
2022/01/12 01:57:56;;;;;;;;;;;;;;;-4.74;100.00;97447.97;1027659;28;19938;-68
2022/01/12 01:58:26;;;;;;;;;;;;;;;-4.74;100.00;97458.19;1031390;28;19929;-66
2022/01/12 01:58:57;;;;;;;;;;;;;;;-4.69;100.00;97455.28;1028097;28;20013;-68
2022/01/12 01:59:27;;;;;;;;;;;;;;;-4.68;100.00;97462.03;1028037;28;19913;-66
2022/01/12 01:59:57;;;;;;;;;;;;;;;-4.67;100.00;97453.41;1019491;28;20009;-67
2022/01/12 02:00:28;;;;;;;;;;;;;;;-4.67;100.00;97453.41;1021521;28;19921;-67
2022/01/12 02:00:58;;;;;;;;;;;;;;;-4.64;100.00;97463.41;1023914;29;20396;-67
2022/01/12 02:01:28;;;;;;;;;;;;;;;-4.63;100.00;97466.75;1026373;28;19942;-67
2022/01/12 02:01:59;;;;;;;;;;;;;;;-4.62;100.00;97464.09;1032086;28;19921;-67
2022/01/12 02:02:29;;;;;;;;;;;;;;;-4.59;100.00;97457.91;1031910;28;19921;-68
2022/01/12 02:03:00;;;;;;;;;;;;;;;-4.58;100.00;97467.22;1027566;28;19925;-67
2022/01/12 02:03:31;;;;;;;;;;;;;;;-4.59;100.00;97463.84;1023921;29;20352;-68
2022/01/12 02:04:03;;;;;;;;;;;;;;;-4.58;100.00;97462.91;1028348;28;19910;-68
2022/01/12 02:04:33;;;;;;;;;;;;;;;-4.56;100.00;97465.31;1028132;28;19910;-67
2022/01/12 02:05:04;;;;;;;;;;;;;;;-4.55;100.00;97461.84;1023864;28;20388;-70
2022/01/12 02:05:34;;;;;;;;;;;;;;;-4.55;100.00;97461.84;1021762;28;19919;-68
2022/01/12 02:06:06;;;;;;;;;;;;;;;-4.57;100.00;97456.84;1028331;28;19913;-67
2022/01/12 02:06:36;;;;;;;;;;;;;;;-4.54;100.00;97459.16;1032061;28;19984;-68
2022/01/12 02:07:06;;;;;;;;;;;;;;;-4.53;100.00;97457.41;1028228;28;20635;-68
2022/01/12 02:07:36;;;;;;;;;;;;;;;-4.54;100.00;97453.22;1024754;29;19918;-68
2022/01/12 02:08:07;;;;;;;;;;;;;;;-4.54;100.00;97453.22;1020202;29;19919;-65
2022/01/12 02:08:37;;;;;;;;;;;;;;;-4.54;100.00;97448.91;1024495;29;19922;-67
2022/01/12 02:09:07;;;;;;;;;;;;;;;-4.53;100.00;97450.53;1020599;29;19914;-68
2022/01/12 02:09:38;;;;;;;;;;;;;;;-4.54;100.00;97456.59;1024177;29;19918;-69
2022/01/12 02:10:08;;;;;;;;;;;;;;;-4.54;100.00;97448.91;1026873;28;19922;-67
2022/01/12 02:10:39;;;;;;;;;;;;;;;-4.56;100.00;97450.78;1021895;29;19911;-67
2022/01/12 02:11:09;;;;;;;;;;;;;;;-4.55;100.00;97449.84;1019912;29;19915;-68
2022/01/12 02:11:39;;;;;;;;;;;;;;;-4.55;100.00;97451.59;1025814;28;20038;-68
2022/01/12 02:12:10;;;;;;;;;;;;;;;-4.54;100.00;97455.78;1023756;28;20392;-68
2022/01/12 02:12:40;;;;;;;;;;;;;;;-4.53;100.00;97450.53;1032075;28;19918;-67
2022/01/12 02:13:10;;;;;;;;;;;;;;;-4.52;100.00;97452.16;1028174;28;19925;-68
2022/01/12 02:13:41;;;;;;;;;;;;;;;-4.51;100.00;97451.22;1023872;29;19914;-66
2022/01/12 02:14:12;;;;;;;;;;;;;;;-4.52;100.00;97452.16;1025129;28;19918;-66
2022/01/12 02:14:42;;;;;;;;;;;;;;;-4.52;100.00;97452.16;1020082;29;20060;-68
2022/01/12 02:15:13;;;;;;;;;;;;;;;-4.51;100.00;97452.97;1019779;29;20415;-68
2022/01/12 02:15:45;;;;;;;;;;;;;;;-4.50;100.00;97457.94;1023726;28;19954;-69
2022/01/12 02:16:18;;;;;;;;;;;;;;;-4.48;100.00;97451.91;1019597;29;20457;-68
2022/01/12 02:17:00;;;;;;;;;;;;;;;-4.48;100.00;97447.59;1024823;28;20407;-69
2022/01/12 02:17:37;;;;;;;;;;;;;;;-4.46;100.00;97444.91;1027826;28;20004;-67
2022/01/12 02:19:30;;;;;;;;;;;;;;;-4.50;100.00;97444.34;1016082;29;20011;-68
2022/01/12 02:35:53;;;;;;;;;;;;;;;-4.30;100.00;97442.69;1031514;28;19918;-68
2022/01/12 02:36:27;;;;;;;;;;;;;;;-4.27;100.00;97452.69;1031356;28;20000;-68
2022/01/12 02:37:02;;;;;;;;;;;;;;;-4.26;100.00;97446.63;1026493;28;19910;-68
2022/01/12 02:40:00;;;;;;;;;;;;;;;-4.27;100.00;97445.81;1026985;28;19906;-68
2022/01/12 02:40:32;;;;;;;;;;;;;;;-4.25;100.00;97447.47;1027181;28;19920;-68
2022/01/12 02:41:03;;;;;;;;;;;;;;;-4.27;100.00;97450.13;1027494;28;19906;-68
2022/01/12 02:41:33;;;;;;;;;;;;;;;-4.27;100.00;97445.00;1031927;28;19910;-68
2022/01/12 02:42:03;;;;;;;;;;;;;;;-4.27;100.00;97448.38;1031200;28;20012;-68
2022/01/12 02:42:35;;;;;;;;;;;;;;;-4.27;100.00;97442.44;1027788;28;19997;-67
2022/01/12 02:50:45;;;;;;;;;;;;;;;-4.27;100.00;97450.13;1027423;28;20017;-67
2022/01/12 02:53:40;;;;;;;;;;;;;;;-4.30;100.00;97455.50;1027770;28;19910;-68
2022/01/12 02:54:13;;;;;;;;;;;;;;;-4.31;100.00;97459.03;1031810;28;19914;-68
2022/01/12 02:54:44;;;;;;;;;;;;;;;-4.31;100.00;97456.47;1032426;28;19913;-68
2022/01/12 02:55:14;;;;;;;;;;;;;;;-4.32;100.00;97458.22;1031773;28;19917;-67
2022/01/12 02:55:44;;;;;;;;;;;;;;;-4.29;100.00;97460.53;1027119;28;19922;-65
2022/01/12 02:56:16;;;;;;;;;;;;;;;-4.29;100.00;97464.84;1026384;28;19933;-67
2022/01/12 02:56:47;;;;;;;;;;;;;;;-4.28;100.00;97463.91;1028020;28;20335;-67
2022/01/12 02:57:17;;;;;;;;;;;;;;;-4.28;100.00;97461.31;1027816;28;19965;-67
2022/01/12 02:57:48;;;;;;;;;;;;;;;-4.27;100.00;97463.75;1027657;28;19951;-67
2022/01/12 02:58:18;;;;;;;;;;;;;;;-4.25;100.00;97467.97;1019427;29;20550;-67
2022/01/12 02:58:49;;;;;;;;;;;;;;;-4.27;100.00;97461.19;1023580;28;20013;-67
2022/01/12 02:59:19;;;;;;;;;;;;;;;-4.25;100.00;97462.84;1023827;28;19911;-68
2022/01/12 03:00:06;;;;;;;;;;;;;;;-4.25;100.00;97462.84;1026549;28;20513;-68
2022/01/12 03:02:28;;;;;;;;;;;;;;;-4.24;100.00;97467.00;1021980;28;19911;-68
2022/01/12 03:03:02;;;;;;;;;;;;;;;-4.25;100.00;97463.66;1030445;28;19960;-67
2022/01/12 03:03:36;;;;;;;;;;;;;;;-4.24;100.00;97465.25;1035013;28;19905;-68
2022/01/12 03:04:09;;;;;;;;;;;;;;;-4.24;100.00;97465.25;1033650;28;20283;-67
2022/01/12 03:04:49;;;;;;;;;;;;;;;-4.24;100.00;97467.81;1033378;28;20012;-67
2022/01/12 03:05:34;;;;;;;;;;;;;;;-4.25;100.00;97468.78;1026842;28;19917;-68
2022/01/12 03:06:06;;;;;;;;;;;;;;;-4.25;100.00;97470.53;1030499;28;19905;-67
2022/01/12 03:06:39;;;;;;;;;;;;;;;-4.27;100.00;97471.44;1027306;28;20012;-67
2022/01/12 03:07:15;;;;;;;;;;;;;;;-4.28;100.00;97472.38;1028969;28;19906;-68
2022/01/12 03:07:46;;;;;;;;;;;;;;;-4.26;100.00;97467.13;1026674;28;20450;-65
2022/01/12 03:08:19;;;;;;;;;;;;;;;-4.27;100.00;97463.75;1026616;28;19944;-68
2022/01/12 03:08:50;;;;;;;;;;;;;;;-4.28;100.00;97463.91;1022522;28;19911;-65
2022/01/12 03:09:22;;;;;;;;;;;;;;;-4.28;100.00;97471.59;1022836;29;20313;-69
2022/01/12 03:09:52;;;;;;;;;;;;;;;-4.32;100.00;97458.22;1018690;29;19911;-67
2022/01/12 03:10:25;;;;;;;;;;;;;;;-4.33;100.00;97466.00;1022020;28;19918;-67
2022/01/12 03:10:55;;;;;;;;;;;;;;;-4.34;100.00;97467.75;1018795;29;19930;-68
2022/01/12 03:11:26;;;;;;;;;;;;;;;-4.55;100.00;97442.16;1019529;29;20606;-66
2022/01/12 03:11:56;;;;;;;;;;;;;;;-4.38;100.00;97463.03;1026635;28;19965;-68
2022/01/12 03:12:26;;;;;;;;;;;;;;;-4.36;100.00;97458.56;1022589;28;19918;-69
2022/01/12 03:12:57;;;;;;;;;;;;;;;-4.37;100.00;97454.41;1022392;29;20316;-68
2022/01/12 03:13:27;;;;;;;;;;;;;;;-4.40;100.00;97455.44;1026005;28;19910;-67
2022/01/12 03:13:57;;;;;;;;;;;;;;;-4.41;100.00;97455.59;1030092;28;19953;-68
2022/01/12 03:14:28;;;;;;;;;;;;;;;-4.44;100.00;97453.28;1031967;28;19905;-66
2022/01/12 03:14:58;;;;;;;;;;;;;;;-4.48;100.00;97457.84;1024282;28;19929;-68
2022/01/12 03:15:28;;;;;;;;;;;;;;;-4.50;100.00;97455.38;1026591;28;20460;-68
2022/01/12 03:15:59;;;;;;;;;;;;;;;-4.51;100.00;97453.78;1026016;28;19906;-69
2022/01/12 03:16:29;;;;;;;;;;;;;;;-4.53;100.00;97455.66;1022678;28;19917;-68
2022/01/12 03:17:00;;;;;;;;;;;;;;;-4.55;100.00;97454.97;1030998;28;19922;-68
2022/01/12 03:17:30;;;;;;;;;;;;;;;-4.56;100.00;97455.09;1030749;28;19922;-69
2022/01/12 03:18:00;;;;;;;;;;;;;;;-4.59;100.00;97452.78;1022950;28;20026;-67
2022/01/12 03:18:30;;;;;;;;;;;;;;;-4.60;100.00;97454.53;1022883;29;19915;-67
2022/01/12 03:19:01;;;;;;;;;;;;;;;-4.58;100.00;97454.41;1021292;28;19921;-67
2022/01/12 03:19:32;;;;;;;;;;;;;;;-4.60;100.00;97457.09;1022430;28;19929;-67
2022/01/12 03:20:05;;;;;;;;;;;;;;;-4.62;100.00;97453.03;1018654;29;20412;-68
2022/01/12 03:20:38;;;;;;;;;;;;;;;-5.10;100.00;97384.38;1019335;28;19910;-68
2022/01/12 03:21:08;;;;;;;;;;;;;;;-4.69;100.00;97446.78;1023387;28;19914;-68
2022/01/12 03:21:39;;;;;;;;;;;;;;;-4.71;100.00;97449.47;1030643;28;19910;-68
2022/01/12 03:22:09;;;;;;;;;;;;;;;-4.69;100.00;97459.56;1030763;28;19921;-67
2022/01/12 03:22:39;;;;;;;;;;;;;;;-4.69;100.00;97455.28;1030957;28;19913;-68
2022/01/12 03:23:10;;;;;;;;;;;;;;;-4.74;100.00;97454.84;1030697;28;19910;-69
2022/01/12 03:23:40;;;;;;;;;;;;;;;-4.73;100.00;97453.88;1026728;28;19921;-70
2022/01/12 03:24:10;;;;;;;;;;;;;;;-4.75;100.00;97455.78;1026583;28;19914;-67
2022/01/12 03:24:42;;;;;;;;;;;;;;;-4.76;100.00;97454.16;1022898;28;20554;-66
2022/01/12 03:25:12;;;;;;;;;;;;;;;-4.76;100.00;97454.97;1022916;28;20446;-67
2022/01/12 03:25:42;;;;;;;;;;;;;;;-4.76;100.00;97456.72;1022672;29;20241;-67
2022/01/12 03:26:13;;;;;;;;;;;;;;;-4.79;100.00;97454.41;1026810;28;19941;-69
2022/01/12 03:26:43;;;;;;;;;;;;;;;-4.77;100.00;97457.66;1026174;28;19922;-67
2022/01/12 03:27:15;;;;;;;;;;;;;;;-4.76;100.00;97454.16;1026850;28;19916;-66
2022/01/12 03:27:45;;;;;;;;;;;;;;;-4.80;100.00;97455.31;1014333;29;19911;-68
2022/01/12 03:28:16;;;;;;;;;;;;;;;-4.82;100.00;97459.78;1014877;29;20452;-68
2022/01/12 03:28:54;;;;;;;;;;;;;;;-4.84;100.00;97461.63;1014838;29;19990;-67
2022/01/12 03:29:24;;;;;;;;;;;;;;;-4.88;100.00;97455.16;1016872;29;21252;-68
2022/01/12 03:29:56;;;;;;;;;;;;;;;-4.93;100.00;97457.25;1026662;28;20418;-66
2022/01/12 03:30:34;;;;;;;;;;;;;;;-4.95;100.00;97461.69;1029121;28;19909;-66
2022/01/12 03:31:17;;;;;;;;;;;;;;;-4.97;100.00;97457.50;1032454;28;20070;-68
2022/01/12 03:31:48;;;;;;;;;;;;;;;-5.01;100.00;97463.78;1027555;28;19906;-67
2022/01/12 03:32:24;;;;;;;;;;;;;;;-5.01;100.00;97466.34;1031005;28;19996;-68
2022/01/12 03:33:09;;;;;;;;;;;;;;;-5.01;100.00;97474.03;1030343;28;19949;-68
2022/01/12 03:34:29;;;;;;;;;;;;;;;-5.03;100.00;97468.25;1027790;28;19906;-69
2022/01/12 03:35:08;;;;;;;;;;;;;;;-5.04;100.00;97461.47;1030585;28;20486;-68
2022/01/12 03:36:12;;;;;;;;;;;;;;;-5.03;100.00;97463.13;1026399;28;20372;-67
2022/01/12 03:36:53;;;;;;;;;;;;;;;-5.02;100.00;97456.25;1026914;28;20391;-68
2022/01/12 03:37:53;;;;;;;;;;;;;;;-5.03;100.00;97457.16;1022630;29;19918;-68
2022/01/12 03:38:24;;;;;;;;;;;;;;;-5.05;100.00;97454.75;1024159;28;20420;-65
2022/01/12 03:38:54;;;;;;;;;;;;;;;-5.27;100.00;97429.22;1024563;28;19925;-67
2022/01/12 03:39:24;;;;;;;;;;;;;;;-5.09;100.00;97457.69;1030657;28;19921;-69
2022/01/12 03:39:55;;;;;;;;;;;;;;;-5.12;100.00;97458.72;1030435;28;20419;-67
2022/01/12 03:40:25;;;;;;;;;;;;;;;-5.11;100.00;97460.34;1025662;28;19948;-66
2022/01/12 03:40:55;;;;;;;;;;;;;;;-5.09;100.00;97461.03;1030721;28;19918;-69
2022/01/12 03:41:26;;;;;;;;;;;;;;;-5.06;100.00;97458.25;1022808;28;19926;-68
2022/01/12 03:41:57;;;;;;;;;;;;;;;-5.08;100.00;97459.28;1018605;29;19974;-68